Time;durP1;ratioP1;P1;durP2;ratioP2;P2;SDS_P1;SDS_P2;PMS_P1;PMS_P2;Temp;Humidity;BMP_temperature;BMP_pressure;BME280_temperature;BME280_humidity;BME280_pressure;Samples;Min_cycle;Max_cycle;Signal;HPM_P1;HPM_P2
2023/10/02 00:01:10;;;;;;;9.83;5.50;;;;;;;13.60;71.00;101041.16;5090495;28;20208;-68
2023/10/02 00:03:41;;;;;;;9.50;5.77;;;;;;;13.61;71.15;101038.53;5086516;28;20224;-69
2023/10/02 00:06:11;;;;;;;12.00;6.53;;;;;;;13.61;70.94;101037.69;5080727;28;20228;-69
2023/10/02 00:08:42;;;;;;;12.93;6.00;;;;;;;13.57;71.21;101036.84;5091681;28;20207;-68
2023/10/02 00:16:40;;;;;;;9.73;5.23;;;;;;;13.52;71.26;101023.09;5090590;28;20700;-69
2023/10/02 00:19:22;;;;;;;8.70;5.90;;;;;;;13.47;71.43;101025.69;5091448;28;20644;-69
2023/10/02 00:21:50;;;;;;;11.20;6.20;;;;;;;13.45;71.74;101027.44;5089356;28;20220;-70
2023/10/02 00:24:18;;;;;;;9.90;6.00;;;;;;;13.45;71.79;101031.78;5084031;28;20233;-69
2023/10/02 00:26:46;;;;;;;10.47;5.90;;;;;;;13.45;71.51;101031.78;5088307;28;20569;-69
2023/10/02 00:29:15;;;;;;;13.17;6.13;;;;;;;13.43;72.09;101034.34;5087527;28;20261;-69
2023/10/02 00:31:46;;;;;;;10.47;5.60;;;;;;;13.42;72.02;101032.66;5086350;28;20213;-70
2023/10/02 00:34:16;;;;;;;9.37;5.97;;;;;;;13.39;71.99;101030.06;5089921;28;20216;-68
2023/10/02 00:36:44;;;;;;;9.50;5.80;;;;;;;13.37;72.02;101026.66;5088338;28;20209;-70
2023/10/02 00:39:30;;;;;;;13.00;5.53;;;;;;;13.39;72.52;101022.31;5086884;28;20212;-69
2023/10/02 00:42:15;;;;;;;10.07;6.07;;;;;;;13.44;71.74;101020.56;5084693;28;20267;-70
2023/10/02 00:44:56;;;;;;;13.33;6.37;;;;;;;13.47;72.04;101017.91;5095315;28;20221;-69
2023/10/02 00:47:42;;;;;;;11.33;6.30;;;;;;;13.43;71.45;101012.78;5099710;28;20728;-69
2023/10/02 00:50:19;;;;;;;12.93;5.97;;;;;;;13.44;71.70;101010.22;5091468;28;20606;-69
2023/10/02 00:52:53;;;;;;;11.83;5.90;;;;;;;13.42;72.15;101011.09;5087473;28;20670;-69
2023/10/02 00:55:24;;;;;;;8.50;5.60;;;;;;;13.41;71.49;101010.22;5093224;28;20212;-69
2023/10/02 00:57:53;;;;;;;10.60;5.90;;;;;;;13.39;71.68;101009.38;5094180;28;20562;-68
2023/10/02 01:00:30;;;;;;;9.97;6.17;;;;;;;13.42;72.28;101019.69;5095352;28;20200;-69
2023/10/02 01:03:01;;;;;;;11.90;6.23;;;;;;;13.39;71.85;101013.69;5086827;28;20196;-71
2023/10/02 01:05:50;;;;;;;10.53;6.17;;;;;;;13.39;71.83;101022.31;5093734;28;20200;-69
2023/10/02 01:08:42;;;;;;;9.90;5.50;;;;;;;13.37;72.21;101029.25;5090568;28;20196;-69
2023/10/02 01:11:13;;;;;;;11.93;6.20;;;;;;;13.37;72.12;101033.56;5085006;28;20209;-68
2023/10/02 01:13:44;;;;;;;10.13;5.83;;;;;;;13.36;71.81;101042.19;5090306;28;20197;-70
2023/10/02 01:16:17;;;;;;;9.53;6.13;;;;;;;13.35;72.00;101043.06;5092411;28;20196;-69
2023/10/02 01:18:48;;;;;;;12.43;5.83;;;;;;;13.33;72.29;101037.00;5100080;28;20208;-68
2023/10/02 01:21:24;;;;;;;10.67;6.30;;;;;;;13.32;71.96;101041.34;5086150;28;20282;-68
2023/10/02 01:24:08;;;;;;;12.03;6.20;;;;;;;13.28;72.28;101034.47;5086057;28;20643;-68
2023/10/02 01:26:38;;;;;;;9.00;6.07;;;;;;;13.30;72.26;101037.91;5079546;28;20205;-69
2023/10/02 01:29:06;;;;;;;10.60;5.93;;;;;;;13.25;71.89;101026.72;5082335;28;20262;-67
2023/10/02 01:31:42;;;;;;;10.33;6.13;;;;;;;13.18;72.06;101036.25;5087136;28;20296;-68
2023/10/02 01:34:25;;;;;;;11.50;6.03;;;;;;;13.11;72.44;101031.09;5091703;28;20204;-67
2023/10/02 01:36:54;;;;;;;13.13;6.70;;;;;;;13.09;72.50;101031.09;5092975;28;20283;-71
2023/10/02 01:39:23;;;;;;;10.40;6.20;;;;;;;13.06;73.02;101026.81;5094479;28;20219;-67
2023/10/02 01:41:53;;;;;;;13.83;7.13;;;;;;;13.08;73.23;101025.97;5097128;28;20204;-67
2023/10/02 01:44:22;;;;;;;12.50;6.30;;;;;;;13.10;72.97;101029.38;5067455;28;20241;-68
2023/10/02 01:46:52;;;;;;;9.33;5.63;;;;;;;13.07;72.92;101017.34;5062371;28;20209;-69
2023/10/02 01:49:27;;;;;;;10.17;6.03;;;;;;;13.09;72.62;101022.50;5069580;28;20189;-68
2023/10/02 01:52:01;;;;;;;8.77;5.70;;;;;;;13.12;73.03;101028.50;5073466;28;20220;-67
2023/10/02 01:54:31;;;;;;;12.47;6.20;;;;;;;13.15;72.58;101027.63;5074770;28;20212;-67
2023/10/02 01:57:00;;;;;;;9.20;6.00;;;;;;;13.16;72.47;101030.22;5063147;28;20293;-68
2023/10/02 01:59:28;;;;;;;8.03;5.37;;;;;;;13.14;72.54;101031.94;5056074;28;20258;-67
2023/10/02 02:01:57;;;;;;;11.13;6.07;;;;;;;13.12;72.99;101044.03;5072969;28;20543;-67
2023/10/02 02:04:28;;;;;;;10.77;6.27;;;;;;;13.12;72.93;101038.00;5070789;28;20308;-66
2023/10/02 02:06:58;;;;;;;10.70;5.87;;;;;;;13.11;72.76;101041.44;5079089;28;20228;-68
2023/10/02 02:09:30;;;;;;;9.67;6.17;;;;;;;13.13;72.81;101050.06;5074017;28;20274;-67
2023/10/02 02:12:07;;;;;;;8.03;5.67;;;;;;;13.15;73.13;101053.50;5062580;28;20919;-68
2023/10/02 02:14:41;;;;;;;8.37;5.60;;;;;;;13.16;72.55;101052.63;5065604;28;20271;-69
2023/10/02 02:17:11;;;;;;;14.23;6.30;;;;;;;13.17;72.43;101046.59;5067099;28;20905;-67
2023/10/02 02:19:47;;;;;;;11.40;5.87;;;;;;;13.15;72.44;101049.19;5073498;28;20249;-67
2023/10/02 02:22:17;;;;;;;12.73;6.30;;;;;;;13.16;72.56;101052.63;5056696;28;21016;-67
2023/10/02 02:24:47;;;;;;;9.63;6.00;;;;;;;13.16;72.89;101044.88;5070447;28;20225;-65
2023/10/02 02:27:19;;;;;;;8.40;5.97;;;;;;;13.16;72.92;101045.72;5064844;28;20206;-67
2023/10/02 02:29:47;;;;;;;10.97;5.77;;;;;;;13.16;72.57;101052.63;5061937;28;20229;-66
2023/10/02 02:32:19;;;;;;;8.03;5.77;;;;;;;13.15;72.81;101048.34;5074558;28;20208;-66
2023/10/02 02:34:48;;;;;;;8.37;5.77;;;;;;;13.13;72.85;101052.66;5072538;28;20200;-65
2023/10/02 02:37:25;;;;;;;11.13;5.77;;;;;;;13.09;72.30;101053.53;5064300;28;20229;-68
2023/10/02 02:39:53;;;;;;;7.80;6.23;;;;;;;13.04;73.31;101061.34;5069984;28;20660;-66
2023/10/02 02:42:24;;;;;;;10.40;5.97;;;;;;;13.02;73.51;101053.56;5080567;28;20664;-66
2023/10/02 02:44:52;;;;;;;13.90;6.23;;;;;;;13.02;73.43;101061.31;5089823;28;20219;-66
2023/10/02 02:47:22;;;;;;;7.57;5.80;;;;;;;12.97;73.63;101051.88;5097607;28;20203;-67
2023/10/02 02:49:52;;;;;;;11.37;6.30;;;;;;;13.09;73.29;101061.31;5083474;28;20287;-67
2023/10/02 02:52:24;;;;;;;10.40;5.47;;;;;;;13.16;73.21;101063.00;5096608;28;20283;-66
2023/10/02 02:54:59;;;;;;;11.57;6.00;;;;;;;13.19;72.76;101060.38;5088162;28;20288;-66
2023/10/02 02:57:31;;;;;;;10.53;5.83;;;;;;;13.24;72.47;101066.41;5105398;28;20242;-66
2023/10/02 03:02:48;;;;;;;9.30;5.60;;;;;;;13.28;72.71;101055.16;5097312;28;20663;-66
2023/10/02 03:05:20;;;;;;;9.77;5.13;;;;;;;13.26;72.14;101050.03;5084517;28;20209;-66
2023/10/02 03:07:54;;;;;;;8.80;5.63;;;;;;;13.32;72.54;101056.88;5091846;28;20193;-67
2023/10/02 03:10:24;;;;;;;9.53;5.80;;;;;;;13.35;72.20;101059.44;5091657;28;20223;-66
2023/10/02 03:12:54;;;;;;;12.80;6.40;;;;;;;13.37;71.87;101056.88;5094094;28;20215;-67
2023/10/02 03:15:45;;;;;;;10.83;5.73;;;;;;;13.38;71.81;101055.97;5088909;28;20254;-66
2023/10/02 03:18:30;;;;;;;9.20;6.00;;;;;;;13.42;72.43;101058.53;5097380;28;20224;-67
2023/10/02 03:21:01;;;;;;;10.30;5.63;;;;;;;13.41;71.63;101054.22;5088720;28;20204;-67
2023/10/02 03:23:30;;;;;;;10.13;5.77;;;;;;;13.40;72.24;101052.53;5081603;28;20209;-65
2023/10/02 03:25:59;;;;;;;10.20;5.97;;;;;;;13.45;71.97;101057.66;5086663;28;20213;-67
2023/10/02 03:28:30;;;;;;;9.87;5.53;;;;;;;13.45;71.57;101058.50;5099970;28;20566;-68
2023/10/02 03:31:00;;;;;;;7.90;6.10;;;;;;;13.45;71.69;101058.50;5085054;28;20204;-66
2023/10/02 03:33:31;;;;;;;11.03;6.07;;;;;;;13.46;71.88;101057.63;5095539;28;20260;-68
2023/10/02 03:36:08;;;;;;;13.27;6.10;;;;;;;13.49;71.83;101060.22;5089879;28;20204;-67
2023/10/02 03:38:41;;;;;;;11.07;6.10;;;;;;;13.50;71.63;101056.75;5092429;28;20900;-66
2023/10/02 03:41:10;;;;;;;8.57;5.30;;;;;;;13.51;71.83;101058.47;5099522;28;20627;-68
2023/10/02 03:43:43;;;;;;;8.27;5.27;;;;;;;13.53;71.37;101048.97;5090102;28;20256;-67
2023/10/02 03:46:22;;;;;;;8.07;5.30;;;;;;;13.53;71.48;101046.38;5093347;28;20580;-67
2023/10/02 03:48:58;;;;;;;13.33;5.97;;;;;;;13.54;71.21;101057.59;5093686;28;20291;-68
2023/10/02 03:51:37;;;;;;;9.70;5.90;;;;;;;13.54;71.81;101055.84;5093853;28;20659;-66
2023/10/02 03:54:18;;;;;;;12.87;5.80;;;;;;;13.56;71.30;101045.50;5090710;28;20196;-70
2023/10/02 03:56:48;;;;;;;8.63;5.50;;;;;;;13.51;71.29;101048.13;5084150;28;20222;-66
2023/10/02 03:59:21;;;;;;;9.37;5.43;;;;;;;13.47;71.86;101051.59;5088411;28;20651;-66
2023/10/02 04:01:50;;;;;;;11.93;5.50;;;;;;;13.47;72.05;101051.59;5086532;28;20201;-69
2023/10/02 04:04:23;;;;;;;9.30;6.03;;;;;;;13.49;71.23;101049.84;5091835;28;20228;-65
2023/10/02 04:06:54;;;;;;;12.93;5.57;;;;;;;13.50;71.54;101051.56;5095255;28;20204;-66
2023/10/02 04:09:24;;;;;;;7.63;5.10;;;;;;;13.52;71.53;101055.00;5090535;28;20270;-67
2023/10/02 04:11:54;;;;;;;11.73;5.90;;;;;;;13.54;71.83;101055.00;5091050;28;20998;-67
2023/10/02 04:14:32;;;;;;;9.27;5.40;;;;;;;13.56;71.58;101042.91;5096119;28;20223;-67
2023/10/02 04:17:10;;;;;;;13.47;6.43;;;;;;;13.50;71.42;101043.78;5091242;28;20192;-66
2023/10/02 04:19:40;;;;;;;9.20;5.47;;;;;;;13.48;71.47;101042.97;5093685;28;20647;-66
2023/10/02 04:22:16;;;;;;;12.17;6.03;;;;;;;13.47;71.49;101041.22;5078470;28;20201;-68
2023/10/02 04:24:58;;;;;;;9.23;5.23;;;;;;;13.46;71.80;101042.09;5090512;28;20649;-69
2023/10/02 04:28:00;;;;;;;11.23;5.50;;;;;;;13.50;71.45;101053.28;5090471;28;20254;-67
2023/10/02 04:30:24;;;;;;;9.50;5.80;;;;;;;13.51;71.46;101050.72;5098084;28;20197;-68
2023/10/02 04:32:58;;;;;;;11.23;6.07;;;;;;;13.53;71.54;101050.69;5079789;28;20205;-66
2023/10/02 04:35:44;;;;;;;10.43;5.10;;;;;;;13.54;71.33;101055.84;5090644;28;20290;-67
2023/10/02 04:38:14;;;;;;;10.07;6.40;;;;;;;13.53;71.45;101056.72;5086335;28;20200;-67
2023/10/02 04:40:49;;;;;;;12.77;5.97;;;;;;;13.51;71.15;101053.31;5089620;28;20639;-68
2023/10/02 04:43:23;;;;;;;10.60;6.17;;;;;;;13.50;71.63;101056.75;5090807;28;20286;-67
2023/10/02 04:46:01;;;;;;;9.53;4.87;;;;;;;13.49;71.46;101056.75;5087879;28;20205;-66
2023/10/02 04:48:39;;;;;;;11.30;6.43;;;;;;;13.47;71.91;101074.03;5090583;28;20286;-67
2023/10/02 04:51:08;;;;;;;10.90;5.70;;;;;;;13.46;71.98;101060.22;5086336;28;20200;-68
2023/10/02 04:53:39;;;;;;;6.77;4.97;;;;;;;13.49;71.84;101062.81;5080368;28;20644;-67
2023/10/02 04:56:21;;;;;;;7.83;4.93;;;;;;;13.49;71.95;101065.38;5092064;28;20205;-68
2023/10/02 04:58:50;;;;;;;9.40;5.50;;;;;;;13.47;72.19;101059.34;5094025;28;20643;-68
2023/10/02 05:01:34;;;;;;;8.73;5.30;;;;;;;13.51;72.26;101063.66;5092980;28;20204;-69
2023/10/02 05:04:03;;;;;;;7.70;5.27;;;;;;;13.58;72.40;101063.59;5089060;28;20275;-67
2023/10/02 05:06:44;;;;;;;6.43;4.73;;;;;;;13.60;71.46;101064.47;5084495;28;20272;-70
2023/10/02 05:09:19;;;;;;;10.03;4.90;;;;;;;13.63;71.62;101054.09;5092819;28;20192;-67
2023/10/02 05:14:48;;;;;;;10.37;5.70;;;;;;;13.73;71.44;101060.88;5078834;28;20225;-67
2023/10/02 05:17:16;;;;;;;10.30;5.03;;;;;;;13.77;70.87;101055.69;5089859;28;20232;-68
2023/10/02 05:20:01;;;;;;;12.80;5.97;;;;;;;13.82;70.77;101059.97;5094157;28;20243;-67
2023/10/02 05:22:31;;;;;;;15.03;5.60;;;;;;;13.85;70.75;101062.53;5085632;28;20204;-68
2023/10/02 05:25:04;;;;;;;9.77;5.37;;;;;;;13.86;70.37;101065.09;5087682;28;20658;-69
2023/10/02 05:27:33;;;;;;;9.40;5.17;;;;;;;13.91;70.33;101073.69;5087734;28;20207;-70
2023/10/02 05:30:05;;;;;;;8.33;4.87;;;;;;;13.90;70.11;101071.97;5077086;28;20207;-70
2023/10/02 05:32:35;;;;;;;10.27;5.13;;;;;;;13.95;70.52;101074.50;5079173;28;20208;-68
2023/10/02 05:35:18;;;;;;;11.07;5.70;;;;;;;13.98;70.18;101085.69;5078794;28;20203;-68
2023/10/02 05:37:51;;;;;;;9.87;4.73;;;;;;;14.01;70.03;101088.28;5080008;28;20212;-68
2023/10/02 05:40:37;;;;;;;13.23;5.67;;;;;;;14.07;69.99;101089.13;5075401;28;20209;-67
2023/10/02 05:43:17;;;;;;;9.23;5.13;;;;;;;14.08;69.95;101090.81;5073248;28;20289;-68
2023/10/02 05:45:50;;;;;;;10.87;5.33;;;;;;;14.11;69.77;101088.22;5072281;28;20615;-66
2023/10/02 05:48:28;;;;;;;6.57;4.80;;;;;;;14.12;69.85;101095.09;5076975;28;20291;-69
2023/10/02 05:50:59;;;;;;;12.60;5.70;;;;;;;14.12;69.46;101097.69;5090753;28;20577;-67
2023/10/02 05:53:32;;;;;;;11.60;5.23;;;;;;;14.13;69.33;101094.22;5081071;28;20244;-68
2023/10/02 05:56:12;;;;;;;11.07;5.87;;;;;;;14.14;69.46;101099.41;5084257;28;20758;-66
2023/10/02 05:58:42;;;;;;;7.07;4.97;;;;;;;14.15;69.35;101100.25;5082599;28;20228;-68
2023/10/02 06:01:26;;;;;;;13.33;5.50;;;;;;;14.18;69.63;101100.25;5077000;28;20591;-68
2023/10/02 06:04:00;;;;;;;10.40;5.50;;;;;;;14.21;69.85;101107.97;5078461;28;20291;-67
2023/10/02 06:06:35;;;;;;;13.30;5.00;;;;;;;14.22;69.89;101101.91;5073924;28;20220;-67
2023/10/02 06:09:12;;;;;;;12.20;5.77;;;;;;;14.22;69.56;101099.34;5077359;28;20211;-69
2023/10/02 06:14:24;;;;;;;14.47;5.20;;;;;;;14.28;69.66;101096.66;5095227;28;20222;-73
2023/10/02 06:16:53;;;;;;;8.83;4.97;;;;;;;14.35;69.26;101106.09;5089503;28;20207;-70
2023/10/02 06:19:22;;;;;;;9.30;5.33;;;;;;;14.39;68.91;101102.59;5087844;28;20664;-71
2023/10/02 06:22:04;;;;;;;13.73;5.70;;;;;;;14.42;69.01;101097.38;5089693;28;20304;-71
2023/10/02 06:24:33;;;;;;;11.70;5.70;;;;;;;14.44;68.88;101100.84;5077599;28;20635;-73
2023/10/02 06:27:07;;;;;;;10.17;5.43;;;;;;;14.43;68.62;101106.91;5086818;28;20231;-71
2023/10/02 06:29:36;;;;;;;10.80;5.57;;;;;;;14.43;68.67;101096.53;5104409;28;20196;-71
2023/10/02 06:32:09;;;;;;;10.43;5.07;;;;;;;14.42;68.53;101097.38;5086082;28;20238;-72
2023/10/02 06:34:43;;;;;;;11.60;5.33;;;;;;;14.38;68.97;101106.06;5084503;28;20742;-72
2023/10/02 06:37:12;;;;;;;12.20;5.60;;;;;;;14.34;68.81;101093.16;5098949;28;20207;-72
2023/10/02 06:39:42;;;;;;;16.33;5.83;;;;;;;14.36;69.07;101102.66;5093941;28;20217;-71
2023/10/02 06:42:15;;;;;;;9.93;5.40;;;;;;;14.37;69.13;101094.00;5090135;28;20607;-73
2023/10/02 06:44:53;;;;;;;11.97;5.20;;;;;;;14.41;69.09;101106.03;5074876;28;20233;-71
2023/10/02 06:47:24;;;;;;;12.57;5.20;;;;;;;14.46;68.91;101106.84;5062212;28;20239;-72
2023/10/02 06:49:53;;;;;;;14.23;5.63;;;;;;;14.53;69.13;101099.03;5070686;28;20201;-71
2023/10/02 06:52:24;;;;;;;11.50;5.77;;;;;;;14.57;69.09;101095.53;5065284;28;20215;-71
2023/10/02 06:54:56;;;;;;;13.20;5.47;;;;;;;14.63;68.70;101103.25;5067232;28;20254;-73
2023/10/02 06:57:25;;;;;;;10.43;5.23;;;;;;;14.70;68.45;101102.31;5069884;28;20793;-70
2023/10/02 06:59:54;;;;;;;8.47;4.83;;;;;;;14.73;68.13;101097.94;5066037;28;20205;-72
2023/10/02 07:02:24;;;;;;;11.80;5.13;;;;;;;14.79;68.15;101094.41;5069963;28;20212;-65
2023/10/02 07:04:55;;;;;;;12.77;5.67;;;;;;;14.85;67.85;101091.75;5067552;28;20299;-71
2023/10/02 07:07:25;;;;;;;9.90;4.80;;;;;;;14.94;67.63;101099.41;5060730;28;20299;-66
2023/10/02 07:09:55;;;;;;;10.10;5.70;;;;;;;15.04;67.21;101094.09;5068649;28;20201;-67
2023/10/02 07:12:27;;;;;;;14.00;5.80;;;;;;;15.06;66.82;101090.63;5074908;28;20197;-68
2023/10/02 07:15:10;;;;;;;8.60;5.07;;;;;;;15.14;66.77;101093.09;5072672;28;20201;-68
2023/10/02 07:17:47;;;;;;;10.32;5.00;;;;;;;15.19;66.34;101096.50;5078754;28;20648;-67
2023/10/02 07:20:20;;;;;;;12.97;5.03;;;;;;;15.26;66.14;101099.88;5066529;28;20245;-69
2023/10/02 07:22:50;;;;;;;10.53;5.37;;;;;;;15.31;66.27;101098.06;5071805;28;20227;-69
2023/10/02 07:25:20;;;;;;;8.57;5.63;;;;;;;15.38;66.24;101097.09;5086472;28;20284;-68
2023/10/02 07:27:49;;;;;;;11.00;5.30;;;;;;;15.45;65.91;101094.38;5075513;28;20759;-69
2023/10/02 07:30:26;;;;;;;11.90;5.20;;;;;;;15.54;66.00;101090.81;5074829;28;20540;-64
2023/10/02 07:33:02;;;;;;;9.90;5.20;;;;;;;15.69;65.74;101087.13;5070929;28;20849;-65
2023/10/02 07:35:34;;;;;;;12.50;4.83;;;;;;;15.78;64.54;101092.16;5071235;28;20585;-66
2023/10/02 07:38:08;;;;;;;11.48;5.10;;;;;;;15.86;64.33;101079.91;5077892;28;20228;-65
2023/10/02 07:40:48;;;;;;;15.47;5.50;;;;;;;15.93;63.86;101083.25;5067181;28;20198;-66
2023/10/02 07:43:19;;;;;;;15.27;5.40;;;;;;;16.02;63.45;101088.31;5081184;28;20232;-71
2023/10/02 07:46:01;;;;;;;12.52;5.40;;;;;;;16.08;62.80;101095.13;5088290;28;20204;-69
2023/10/02 07:48:33;;;;;;;15.45;5.07;;;;;;;16.14;62.83;101090.69;5090262;28;20213;-72
2023/10/02 07:51:06;;;;;;;8.80;4.65;;;;;;;16.27;62.70;101091.31;5090112;28;20211;-71
2023/10/02 07:53:39;;;;;;;13.30;5.30;;;;;;;16.34;62.40;101087.72;5099134;28;20268;-69
2023/10/02 07:56:11;;;;;;;10.57;5.05;;;;;;;16.37;62.03;101090.25;5095441;28;20304;-69
2023/10/02 07:58:41;;;;;;;7.85;4.45;;;;;;;16.42;61.93;101093.66;5097129;28;20214;-70
2023/10/02 08:01:12;;;;;;;7.38;4.60;;;;;;;16.47;61.61;101080.56;5093844;28;20258;-70
2023/10/02 08:03:45;;;;;;;8.65;4.38;;;;;;;16.61;61.61;101091.56;5096725;28;20201;-67
2023/10/02 08:06:33;;;;;;;11.27;4.88;;;;;;;16.95;61.39;101079.63;5092889;28;20212;-70
2023/10/02 08:11:51;;;;;;;6.80;4.20;;;;;;;17.42;58.87;101086.38;5090269;28;20207;-63
2023/10/02 08:17:18;;;;;;;8.77;4.60;;;;;;;17.68;57.68;101090.13;5091788;28;20204;-67
2023/10/02 08:19:56;;;;;;;9.57;4.40;;;;;;;17.65;58.39;101088.44;5098243;28;20666;-73
2023/10/02 08:22:35;;;;;;;8.43;4.10;;;;;;;17.72;58.53;101096.97;5097968;28;20227;-73
2023/10/02 08:25:12;;;;;;;7.90;4.40;;;;;;;17.68;57.67;101085.78;5092127;28;20196;-72
2023/10/02 08:27:43;;;;;;;8.43;4.78;;;;;;;17.65;57.82;101092.81;5089973;28;20265;-74
2023/10/02 08:30:26;;;;;;;8.05;4.45;;;;;;;17.61;58.14;101092.03;5080008;28;20292;-70
2023/10/02 08:32:56;;;;;;;11.73;4.25;;;;;;;17.68;58.24;101090.13;5085586;28;20212;-70
2023/10/02 08:35:26;;;;;;;12.98;4.68;;;;;;;17.65;57.82;101098.88;5089279;28;20208;-73
2023/10/02 08:37:55;;;;;;;9.65;4.53;;;;;;;17.59;58.03;101099.00;5091370;28;20598;-73
2023/10/02 08:40:25;;;;;;;6.53;4.13;;;;;;;17.51;58.29;101096.59;5090052;28;20288;-72
2023/10/02 08:42:53;;;;;;;8.57;4.78;;;;;;;17.53;58.73;101094.81;5093220;28;20607;-73
2023/10/02 08:45:21;;;;;;;9.40;4.47;;;;;;;17.61;58.75;101107.66;5091295;28;20205;-72
2023/10/02 08:47:50;;;;;;;9.60;4.30;;;;;;;17.72;58.47;101104.78;5088171;28;20315;-72
2023/10/02 08:50:18;;;;;;;16.38;4.97;;;;;;;17.83;58.03;101095.00;5087509;28;20204;-70
2023/10/02 08:52:50;;;;;;;12.68;4.57;;;;;;;17.95;57.29;101097.28;5087370;28;20684;-70
2023/10/02 08:55:45;;;;;;;9.18;4.38;;;;;;;18.05;57.23;101100.53;5091607;28;20290;-71
2023/10/02 08:58:17;;;;;;;14.88;4.63;;;;;;;18.14;56.94;101086.38;5090442;28;20197;-70
2023/10/02 09:01:17;;;;;;;13.60;4.65;;;;;;;18.28;56.18;101105.13;5090781;28;20287;-71
2023/10/02 09:04:03;;;;;;;11.85;4.57;;;;;;;18.34;56.06;101095.41;5082216;28;20238;-71
2023/10/02 09:06:41;;;;;;;6.18;3.65;;;;;;;18.27;55.66;101098.22;5088409;28;20658;-72
2023/10/02 09:09:21;;;;;;;10.10;4.53;;;;;;;18.22;56.02;101094.84;5085042;28;20213;-73
2023/10/02 09:11:53;;;;;;;8.95;3.90;;;;;;;18.20;56.34;101097.53;5082666;28;20658;-72
2023/10/02 09:14:39;;;;;;;10.25;4.20;;;;;;;18.25;56.21;101097.38;5095894;28;20224;-72
2023/10/02 09:17:20;;;;;;;6.88;3.75;;;;;;;18.41;56.23;101085.66;5086711;28;20208;-72
2023/10/02 09:20:07;;;;;;;10.02;3.72;;;;;;;18.59;55.43;101090.38;5082930;28;20231;-71
2023/10/02 09:22:38;;;;;;;8.35;3.22;;;;;;;18.77;54.86;101089.00;5089956;28;20205;-72
2023/10/02 09:25:12;;;;;;;10.68;3.67;;;;;;;18.93;54.35;101091.19;5088568;28;20739;-72
2023/10/02 09:27:56;;;;;;;7.38;3.97;;;;;;;19.07;53.73;101086.38;5090902;28;20222;-71
2023/10/02 09:30:36;;;;;;;7.85;3.10;;;;;;;19.19;53.09;101079.97;5084386;28;20192;-73
2023/10/02 09:33:14;;;;;;;7.50;3.40;;;;;;;19.21;52.42;101079.00;5087139;28;20574;-71
2023/10/02 09:36:05;;;;;;;10.88;3.50;;;;;;;19.41;52.73;101067.06;5089077;28;20200;-72
2023/10/02 09:38:56;;;;;;;8.43;3.88;;;;;;;19.62;52.03;101079.47;5091272;28;20816;-71
2023/10/02 09:41:24;;;;;;;8.10;3.10;;;;;;;19.74;51.16;101073.00;5086916;28;20196;-71
2023/10/02 09:43:55;;;;;;;6.82;3.15;;;;;;;19.93;50.89;101063.63;5094245;28;20254;-71
2023/10/02 09:46:29;;;;;;;8.68;3.20;;;;;;;20.15;50.37;101078.59;5086419;28;20201;-71
2023/10/02 09:49:09;;;;;;;7.38;3.42;;;;;;;20.31;49.72;101066.66;5091881;28;20701;-72
2023/10/02 09:52:09;;;;;;;9.82;2.92;;;;;;;20.42;49.61;101056.66;5085994;28;20200;-70
2023/10/02 09:54:41;;;;;;;6.93;3.35;;;;;;;20.73;49.20;101066.91;5087953;28;20253;-70
2023/10/02 09:57:16;;;;;;;8.77;2.90;;;;;;;21.10;48.18;101059.38;5089030;28;20210;-71
2023/10/02 09:59:48;;;;;;;8.80;3.13;;;;;;;21.40;46.79;101050.34;5082215;28;20626;-72
2023/10/02 10:10:50;;;;;;;4.72;2.50;;;;;;;21.41;44.96;101059.06;5090804;28;20203;-71
2023/10/02 10:13:27;;;;;;;11.23;3.17;;;;;;;21.38;44.98;101056.56;5083643;28;20287;-71
2023/10/02 10:16:35;;;;;;;6.22;2.58;;;;;;;21.42;45.05;101058.16;5076137;28;20240;-71
2023/10/02 10:19:33;;;;;;;6.22;2.72;;;;;;;21.43;44.75;101057.25;5085488;28;20696;-70
2023/10/02 10:22:10;;;;;;;6.20;2.47;;;;;;;21.36;44.50;101050.56;5086039;28;20197;-71
2023/10/02 10:24:56;;;;;;;4.68;2.50;;;;;;;21.17;44.63;101051.25;5087081;28;20570;-71
2023/10/02 10:28:00;;;;;;;19.67;2.83;;;;;;;20.93;45.11;101041.72;5087556;28;20203;-72
2023/10/02 10:30:42;;;;;;;7.05;2.80;;;;;;;20.78;45.70;101037.06;5082501;28;20277;-63
2023/10/02 10:33:40;;;;;;;6.10;2.08;;;;;;;20.57;45.68;101049.19;5081516;28;20242;-64
2023/10/02 10:36:35;;;;;;;6.93;2.47;;;;;;;20.40;46.28;101042.78;5091789;28;20205;-65
2023/10/02 10:39:43;;;;;;;6.03;2.97;;;;;;;20.35;46.36;101029.00;5086833;28;20204;-61
2023/10/02 10:42:12;;;;;;;4.60;2.40;;;;;;;20.37;45.67;101026.34;5088927;28;20606;-64
2023/10/02 10:44:43;;;;;;;7.72;2.42;;;;;;;20.48;45.96;101024.19;5086430;28;20205;-66
2023/10/02 10:47:14;;;;;;;6.22;2.15;;;;;;;20.66;45.96;101022.69;5089779;28;20228;-64
2023/10/02 10:49:53;;;;;;;6.13;2.17;;;;;;;20.85;45.43;101022.81;5099113;28;20205;-71
2023/10/02 10:52:34;;;;;;;5.60;2.55;;;;;;;21.07;45.27;101018.44;5089382;28;20205;-71
2023/10/02 10:55:32;;;;;;;5.80;2.00;;;;;;;21.22;44.71;101007.34;5083280;28;20522;-68
2023/10/02 10:58:01;;;;;;;5.28;2.25;;;;;;;21.48;44.15;101008.09;5091924;28;20204;-68
2023/10/02 11:00:40;;;;;;;4.40;2.25;;;;;;;21.67;43.18;101013.41;5096347;28;20287;-69
2023/10/02 11:03:11;;;;;;;4.97;2.00;;;;;;;21.74;42.39;101014.84;5087569;28;20738;-70
2023/10/02 11:05:41;;;;;;;5.30;2.00;;;;;;;21.85;42.08;101012.63;5091523;28;20212;-70
2023/10/02 11:08:25;;;;;;;4.07;1.95;;;;;;;21.95;41.80;101010.47;5092390;28;20299;-72
2023/10/02 11:11:18;;;;;;;3.47;2.03;;;;;;;22.06;41.47;101015.25;5095806;28;20301;-70
2023/10/02 11:13:58;;;;;;;7.15;1.55;;;;;;;22.11;40.52;101014.13;5089432;28;20196;-69
2023/10/02 11:16:31;;;;;;;4.50;1.88;;;;;;;22.17;40.31;100997.28;5090699;28;20288;-71
2023/10/02 11:19:10;;;;;;;4.47;1.63;;;;;;;22.24;40.42;100998.72;5088131;28;20633;-69
2023/10/02 11:21:46;;;;;;;4.75;2.03;;;;;;;22.35;40.66;100985.97;5094934;28;20560;-70
2023/10/02 11:24:22;;;;;;;8.75;2.35;;;;;;;22.47;40.42;100986.31;5096300;28;20200;-71
2023/10/02 11:26:53;;;;;;;8.70;2.00;;;;;;;22.49;40.27;100987.09;5087241;28;20200;-70
2023/10/02 11:29:21;;;;;;;5.25;2.17;;;;;;;22.45;39.97;100980.28;5090062;28;20212;-70
2023/10/02 11:32:19;;;;;;;7.13;2.50;;;;;;;22.35;40.10;100979.81;5089787;28;20205;-70
2023/10/02 11:34:51;;;;;;;3.83;1.80;;;;;;;22.28;39.96;100984.53;5087458;28;20204;-72
2023/10/02 11:37:23;;;;;;;4.15;1.92;;;;;;;22.19;40.01;100977.91;5087498;28;20224;-69
2023/10/02 11:39:55;;;;;;;5.72;2.25;;;;;;;22.12;40.24;100975.59;5090899;28;20286;-71
2023/10/02 11:42:24;;;;;;;5.22;2.20;;;;;;;22.17;39.87;100978.91;5088970;28;20296;-70
2023/10/02 11:44:53;;;;;;;5.90;2.20;;;;;;;22.27;40.07;100984.59;5090257;28;20288;-70
2023/10/02 11:47:21;;;;;;;5.03;2.30;;;;;;;22.32;39.85;100974.75;5092632;28;20236;-70
2023/10/02 11:49:49;;;;;;;4.18;2.17;;;;;;;22.45;39.70;100975.00;5089154;28;20209;-68
2023/10/02 11:52:18;;;;;;;4.75;2.22;;;;;;;22.54;39.42;100969.34;5100031;28;20670;-69
2023/10/02 11:54:46;;;;;;;4.90;2.08;;;;;;;22.63;39.33;100968.91;5090009;28;20231;-67
2023/10/02 11:57:16;;;;;;;7.45;2.10;;;;;;;22.63;38.91;100964.50;5087337;28;20209;-70
2023/10/02 11:59:47;;;;;;;4.35;1.90;;;;;;;22.67;39.16;100971.31;5097188;28;20310;-73
2023/10/02 12:02:17;;;;;;;6.60;2.25;;;;;;;22.71;39.45;100973.78;5088342;28;20207;-68
2023/10/02 12:04:46;;;;;;;5.15;2.10;;;;;;;22.70;39.16;100974.72;5093564;28;20199;-68
2023/10/02 12:07:16;;;;;;;6.25;2.35;;;;;;;22.63;39.23;100972.38;5087742;28;20265;-69
2023/10/02 12:09:47;;;;;;;5.18;1.83;;;;;;;22.60;39.47;100969.03;5103277;28;20220;-68
2023/10/02 12:12:17;;;;;;;6.13;2.17;;;;;;;22.60;39.70;100964.63;5081847;28;20228;-68
2023/10/02 12:14:45;;;;;;;4.78;2.25;;;;;;;22.56;39.89;100962.22;5089549;28;20232;-68
2023/10/02 12:17:14;;;;;;;5.20;2.10;;;;;;;22.52;40.24;100960.69;5089497;28;20204;-68
2023/10/02 12:19:44;;;;;;;4.97;2.40;;;;;;;22.53;40.23;100957.13;5078739;28;20202;-68
2023/10/02 12:22:12;;;;;;;3.80;1.92;;;;;;;22.53;40.16;100957.97;5086349;28;20563;-68
2023/10/02 12:24:40;;;;;;;7.80;2.10;;;;;;;22.53;39.98;100957.97;5088510;28;20613;-69